Mark Scott

Jefe de ojeadores - Luton Town
6 Ene 2028
Jueves
Continuar

Personalidad

Adaptabilidad (4) Ambición (16) Controversia (11) Lealtad (5) Presión (7) Profesionalismo (10) Deportividad (6) Temperamento (3)

Perfil

Estilo de dirección Democrático
Licencia Continental Pro
Determinación 4
Gestión de personas 6
Motivación 12
Disciplina 8
Satisfacción laboral
30%
Fatiga
0%
Cargo Jefe de ojeadores
Salario 14.3K p/s
Contrato 14.03.2028

Rendimiento

Comportamiento Bueno
Efectividad del entrenamiento
11%
Desarrollo de jugadores
60%
Prevención de lesiones
35%
Implementación táctica
35%

Eventos recientes

Recomendó un objetivo de fichaje ahora
Recomendó un objetivo de fichaje ahora
Recomendó un objetivo de fichaje ahora
Recomendó un objetivo de fichaje ahora
Recomendó un objetivo de fichaje ahora
Presentó un informe a la directiva ahora
Negociación de contrato iniciada ahora
Presentó un informe a la directiva ahora

Actualmente siguiendo

244
Jugador Club Estado Habilidad Confianza Observado Última observación Último voto
Aurélien Scheidler Tondela Activo 119 / 119 67% 1 01.01.2028 Aprobar
Santiago Hezze Chaves Negociando 132 / 133 62% 1 01.01.2028 -
Lisav Eissat Bristol City Negociando 109 / 114 72% 1 01.01.2028 -
Tomás Aranda Boca Juniors Activo 117 / 124 40% 9 30.12.2027 -
Chris Rigg Sunderland Activo 142 / 146 40% 1 30.12.2027 -
Gabriel Mec Porto Activo 126 / 137 40% 1 30.12.2027 -
Mikkel Hope Haugesund Activo 106 / 116 40% 3 26.12.2027 -
Jayden Danns Wigan Athletic Activo 140 / 140 40% 2 26.12.2027 -
Rio Ngumoha Stockport County Activo 134 / 147 40% 1 26.12.2027 -
Ronan Kpakio Cardiff City Activo 127 / 118 40% 2 25.12.2027 -
Archie Gray Derby County Activo 152 / 163 40% 3 25.12.2027 -
Lucas Camejo River Plate Activo 88 / 94 40% 5 23.12.2027 -
Luighi Palmeiras Activo 121 / 126 40% 6 23.12.2027 -
Zakhar Chushkin Spartak Moscow Activo 78 / 89 40% 1 23.12.2027 -
Luis Vidal Deportivo Pereira Activo 80 / 94 40% 4 22.12.2027 -
Trey Nyoni Rotherham United Activo 131 / 136 40% 2 22.12.2027 -
Ryan McAidoo Gillingham Activo 122 / 129 40% 1 22.12.2027 -
Chimobi Igwilo Rangers International Activo 98 / 91 40% 6 21.12.2027 -
Emmanuel Ndubueze Shooting Stars Activo 81 / 95 40% 5 21.12.2027 -
Bazoumana Touré Newcastle United Activo 150 / 155 40% 2 21.12.2027 -
Dylan Cabral Arsenal Activo 107 / 98 40% 5 19.12.2027 -
Seb Ferdinand Chesterfield Activo 116 / 125 40% 2 19.12.2027 -
Dmitry Pestryakov Dinamo Moscow Activo 117 / 127 40% 3 19.12.2027 -
Fredrik Ardraa Stromsgodset Activo 106 / 111 40% 8 17.12.2027 -
Musa Malik Ikorodu City Activo 95 / 94 40% 2 17.12.2027 -
Álex Marchal Real Sociedad Activo 111 / 121 40% 1 17.12.2027 -
Honest Ahanor Atalanta Activo 134 / 143 40% 8 16.12.2027 -
Estêvão Millwall Activo 156 / 152 40% 3 16.12.2027 -
Alfie James Ventforet Kofu Activo 86 / 100 40% 3 14.12.2027 -
Imran Musa Atvidaberg Activo 94 / 93 40% 1 14.12.2027 -
Jofre Torrents Ajax Activo 135 / 145 40% 5 12.12.2027 -
Juan Camilo Córdoba Deportivo Pereira Activo 93 / 101 40% 4 12.12.2027 -
Ryan Kavuma-McQueen Accrington Stanley Activo 121 / 136 40% 2 12.12.2027 -
Nicolas Sport Recife Activo 97 / 103 40% 3 11.12.2027 -
Jay Robinson Southampton Activo 127 / 127 40% 2 09.12.2027 -
David Valencia Alianza Petrolera Activo 122 / 138 40% 1 09.12.2027 -
Ben Broggio Grimsby Town Activo 115 / 115 40% 1 06.12.2027 -
Gabe Forsyth Crawley Town Activo 109 / 113 40% 1 06.12.2027 -
Franco Minerva Platense Activo 115 / 119 40% 3 05.12.2027 -
Esquerdinha Shrewsbury Town Activo 114 / 117 40% 1 04.12.2027 -
Facundo Martínez Montevideo City Torque Activo 89 / 100 40% 3 03.12.2027 -
Jake Evans Colchester United Activo 103 / 126 40% 1 01.12.2027 -
Chaka Coulibaly Remo Stars Activo 85 / 109 40% 4 30.11.2027 -
Hervin Goyes Deportivo Pasto Activo 117 / 108 40% 6 29.11.2027 -
Tyson Pearce St. Louis CITY SC Activo 90 / 100 40% 3 29.11.2027 -
Tiziano Cabrera Central Norte Activo 88 / 86 40% 3 28.11.2027 -
Kevin Angulo America de Cali Activo 92 / 104 40% 3 28.11.2027 -
Ruben Ramos LA Galaxy Activo 105 / 104 40% 3 28.11.2027 -
Joel Ezra Enyimba Activo 90 / 99 40% 7 24.11.2027 -
Dominik Chong Qui Atlanta United FC Activo 93 / 99 40% 6 23.11.2027 -
Luca Williams-Barnett Tranmere Rovers Activo 119 / 127 40% 7 22.11.2027 -
Kerim Alajbegović Modena Activo 131 / 131 40% 1 22.11.2027 -
Joseph Abah Remo Stars Activo 88 / 93 40% 3 21.11.2027 -
Diogo Guzmán Montevideo City Torque Activo 116 / 124 40% 8 20.11.2027 -
Oscar Schwartau Norwich City Activo 135 / 135 40% 1 20.11.2027 -
Chinedu Nwosu Bendel Insurance Activo 87 / 82 40% 4 18.11.2027 -
Sebastian Olderheim Stabaek Activo 97 / 111 40% 2 18.11.2027 -
Gonçalo Moreira Benfica Activo 126 / 123 40% 1 17.11.2027 -
Cooper Sanchez Atlanta United FC Activo 96 / 103 40% 2 15.11.2027 -
Hassan Beja AFC Leopards Activo 78 / 79 40% 8 13.11.2027 -
Tiago Parente Benfica Activo 111 / 117 40% 1 08.11.2027 -
Brandon Álvarez Penarol Activo 86 / 91 40% 3 07.11.2027 -
Bassey John Enyimba Activo 84 / 86 40% 1 07.11.2027 -
Ethan Williams Peterborough United Activo 123 / 125 40% 1 03.11.2027 -
Andy Rojas New York Red Bulls Activo 105 / 98 40% 2 30.10.2027 -
Ethan Nwaneri Arsenal Activo 145 / 165 40% 1 30.10.2027 -
Caleb Yirenkyi Coventry City Activo 134 / 150 40% 5 29.10.2027 -
Matías Canedo Rampla Juniors Activo 86 / 90 40% 2 27.10.2027 -
Ben Gannon Doak Bournemouth Activo 150 / 154 40% 2 25.10.2027 -
Harbor Miller LA Galaxy Activo 103 / 96 40% 5 24.10.2027 -
Daniel Ferraresi Llaneros Activo 88 / 82 40% 2 24.10.2027 -
Micah Burton Austin FC Activo 88 / 93 40% 1 22.10.2027 -
Zannetos Savva Albirex Niigata Activo 82 / 93 40% 1 20.10.2027 -
Gilberto Mora Atlético Madrid Activo 136 / 135 40% 2 16.10.2027 -
Ramiro Jara Racing Activo 79 / 86 40% 2 11.10.2027 -
Santiago López Independiente Activo 127 / 129 40% 3 10.10.2027 -
Giovanni Baroni Talleres Activo 107 / 134 40% 2 09.10.2027 -
Emiliano Zambrano Gimnasia y Esgrima Activo 93 / 103 40% 4 09.10.2027 -
Santino Carrizo Chacarita Juniors Activo 76 / 84 40% 1 09.10.2027 -
Joseph Arumala Ikorodu City Activo 94 / 80 40% 1 07.10.2027 -
Mauro Carrizo Atlético Tucumán Activo 104 / 106 40% 1 05.10.2027 -
Tobias Moi Bodo/Glimt Activo 114 / 108 40% 1 05.10.2027 -
Chibueze Oputa Rangers International Activo 84 / 92 40% 1 04.10.2027 -
Diego Vargas San Marcos de Arica Activo 82 / 99 40% 1 04.10.2027 -
Gift Udoh Ikorodu City Activo 90 / 103 40% 1 04.10.2027 -
Aiden Hezarkhani Real Salt Lake Activo 96 / 102 40% 2 02.10.2027 -
Demian Rea Banfield Activo 101 / 115 40% 1 01.10.2027 -
Mikhail Alexandrov Dinamo Brest Activo 89 / 91 40% 1 01.10.2027 -
Samuel Posada Leones Activo 85 / 87 40% 1 27.09.2027 -
Jofrank Istifanus Nasarawa United Activo 86 / 87 40% 3 23.09.2027 -
Emmanuel Chacón Zulia Activo 82 / 94 40% 1 23.09.2027 -
Joaquín Muñoz O'Higgins Activo 79 / 87 40% 1 21.09.2027 -
Juan Rodríguez Wanderers Activo 96 / 95 40% 1 20.09.2027 -
Josh King Chelsea Activo 150 / 142 40% 1 15.09.2027 -
Noah Streit CF Montreal Activo 112 / 125 40% 1 14.09.2027 -
Jhon Renteria Sarmiento Activo 103 / 129 40% 1 13.09.2027 -
Dilan Godoy Vélez Activo 101 / 127 40% 2 12.09.2027 -
Matías Gómez Granada Activo 112 / 127 40% 4 28.06.2027 -
Jan Bürger Gillingham Activo 114 / 117 40% 2 28.06.2027 -
Percy Jali Free State Stars Activo 92 / 107 40% 4 02.06.2027 -
Joseph Nuhu Hasaacas Activo 90 / 81 40% 2 02.06.2027 -
Dion Beljo Standard Liege Activo 131 / 132 66% 1 01.06.2027 Aprobar
Sascha Britschgi Padova Activo 115 / 121 40% 3 30.05.2027 -
Joel McGregor Swindon Town Activo 92 / 95 40% 3 30.05.2027 -
Davide Bartesaghi AC Milan Activo 129 / 135 40% 4 30.05.2027 -
Riley Owen Trento Activo 103 / 102 40% 5 28.05.2027 -
Finley McAllister Grimsby Town Activo 89 / 104 40% 1 28.05.2027 -
Fuzy Taylor Medeama Activo 82 / 89 40% 2 26.05.2027 -
Mpho Khethang AS Police Activo 80 / 82 40% 4 26.05.2027 -
David Atiemo Liberty Professionals Activo 86 / 86 40% 4 25.05.2027 -
Juan Giménez Celta Activo 116 / 131 40% 2 25.05.2027 -
Christos Mouzakitis Hull City Activo 136 / 132 40% 7 24.05.2027 -
Daniel Kelly Oxford United Activo 114 / 128 40% 2 24.05.2027 -
Dylan Lawlor Cardiff City Activo 118 / 112 40% 3 22.05.2027 -
Olaniyi Saheed Kwara United Activo 84 / 87 40% 1 22.05.2027 -
Johan Manzambi Newcastle United Activo 142 / 150 40% 1 17.05.2027 -
Keagan Tau Ajax Cape Town Activo 104 / 105 40% 4 15.05.2027 -
Edwin Asamoah Berekum Chelsea Activo 75 / 97 40% 3 14.05.2027 -
Christ Inao Oulaï Fiorentina Activo 138 / 138 40% 3 13.05.2027 -
Josh Smith Accrington Stanley Activo 75 / 83 40% 1 10.05.2027 -
Leandro Martins Benfica Activo 92 / 90 40% 2 09.05.2027 -
Felix Afful Liberty Professionals Activo 86 / 85 40% 2 08.05.2027 -
Kazunari Kita Real Sociedad Activo 91 / 98 40% 3 06.05.2027 -
Martim Cunha Porto Activo 98 / 104 40% 2 02.05.2027 -
Tiago Freitas Benfica Activo 103 / 108 40% 1 02.05.2027 -
Ernie Weaver AFC Wimbledon Activo 103 / 113 40% 1 26.04.2027 -
David Ozoh Derby County Activo 113 / 135 40% 1 26.04.2027 -
Hlompho Lorch Ajax Cape Town Activo 107 / 113 40% 2 22.04.2027 -
Zane Albarus Cambridge United Activo 88 / 96 40% 1 20.04.2027 -
Surprise Manthosi Polokwane City Activo 103 / 102 40% 1 20.04.2027 -
Cathal Heffernan Harrogate Town Activo 81 / 84 40% 2 19.04.2027 -
Daniel Costa Sporting CP Activo 95 / 102 40% 1 18.04.2027 -
Bernardo Lima Porto Activo 101 / 107 40% 1 12.04.2027 -
Rivaldo Grobler Free State Stars Activo 100 / 118 40% 1 12.04.2027 -
Pietro Reggiori Pro Patria Activo 88 / 100 40% 1 11.04.2027 -
Ronwen Phiri Platinum Stars Activo 99 / 97 40% 1 10.04.2027 -
Gopolang Taunyane CR Belouizdad Activo 103 / 93 40% 1 09.04.2027 -
Tyler Fredricson Oldham Athletic Activo 102 / 110 40% 1 18.01.2027 -
Mbekezeli Mbokazi Chicago Fire Activo 121 / 119 40% 2 01.01.2027 -
Amar Memić Casa Pia Activo 127 / 128 62% 1 01.01.2027 Aprobar
Andreas Trimmel Red Bull Salzburg Activo 131 / 131 60% 1 01.01.2027 Aprobar
Jefry Zapata Danubio Activo 118 / 118 67% 1 01.01.2027 Aprobar
Themba Ngcobo SuperSport United Activo 118 / 111 40% 5 31.12.2026 -
Morgan Whittaker Middlesbrough Activo 138 / 128 40% 2 31.12.2026 -
Robert Mizo Ashanti Gold Activo 100 / 116 40% 1 31.12.2026 -
Sorba Thomas Stoke City Activo 138 / 140 40% 2 30.12.2026 -
Romano Schmid Frosinone Activo 151 / 143 40% 1 30.12.2026 -
Giorgi Chakvetadze Watford Activo 125 / 122 40% 1 30.12.2026 -
Etiosa Ighodaro Kaizer Chiefs Activo 108 / 123 40% 2 27.12.2026 -
Mohamed-Ali Cho Hull City Activo 124 / 126 40% 2 26.12.2026 -
Yousef Salech Cardiff City Activo 120 / 118 40% 2 25.12.2026 -
Richard Koné Queens Park Rangers Activo 124 / 113 40% 2 25.12.2026 -
Georginio Rutter Brighton Activo 149 / 147 40% 4 24.12.2026 -
Matt O'Riley Brighton Activo 146 / 136 40% 3 24.12.2026 -
Mathias Jørgensen Blackburn Rovers Activo 119 / 125 40% 1 24.12.2026 -
Ali Ahmed Norwich City Activo 120 / 119 40% 1 23.12.2026 -
Will Lankshear Middlesbrough Activo 126 / 134 40% 2 21.12.2026 -
Bongani Mothiba SuperSport United Activo 84 / 74 40% 3 21.12.2026 -
Derensili Sanches Fernandes Huddersfield Town Activo 126 / 123 40% 4 21.12.2026 -
Niall Ennis Blackpool Activo 114 / 116 40% 1 21.12.2026 -
Tyreece Simpson Maritzburg United Activo 75 / 88 40% 2 19.12.2026 -
Brayan León Mamelodi Sundowns Activo 125 / 120 40% 3 19.12.2026 -
Tadeo Allende Inter Miami CF Activo 119 / 116 40% 4 16.12.2026 Observar
Mandla Mahlangu Ajax Cape Town Activo 107 / 105 40% 3 16.12.2026 -
Bamba Dieng Crvena Zvezda Activo 124 / 130 40% 1 16.12.2026 -
Bryan Ramírez FC Cincinnati Activo 124 / 133 40% 1 15.12.2026 -
Williams Manyama SuperSport United Activo 113 / 113 40% 1 15.12.2026 -
Mohammed Yahaya Great Olympics Activo 75 / 98 40% 1 15.12.2026 -
Kévin Denkey FC Cincinnati Activo 133 / 121 40% 4 13.12.2026 -
Ruben van Bommel Ferencvaros Activo 136 / 140 40% 2 13.12.2026 -
Tom Fellows Southampton Activo 123 / 124 40% 3 11.12.2026 -
Kelvin Yeboah Minnesota United FC Activo 126 / 130 40% 4 11.12.2026 -
Carlos Vicente Birmingham Activo 140 / 133 40% 2 11.12.2026 -
Marezi Portsmouth Activo 115 / 114 40% 1 11.12.2026 -
Nathan Ordaz Metalist Activo 102 / 121 40% 1 11.12.2026 -
Kwadwo Baah Watford Activo 121 / 126 40% 1 10.12.2026 -
Shea Charles Southampton Activo 139 / 124 40% 1 09.12.2026 -
Kenan Dervišagić Floriana Activo 106 / 91 40% 2 07.12.2026 -
Bénie Traoré New York City Activo 124 / 128 40% 3 03.12.2026 -
Dean Erasmus Platinum Stars Activo 101 / 79 40% 1 03.12.2026 -
Theo Corbeanu Toronto FC Activo 129 / 115 40% 2 02.12.2026 -
Armindo Sieb Los Angeles Football Club Activo 123 / 131 40% 2 02.12.2026 -
Tshepang Moremi Orlando Pirates Activo 115 / 103 40% 2 02.12.2026 -
Sibusiso Tshabalala Polokwane City Activo 83 / 94 40% 1 28.11.2026 -
Rafael Navarro St. Louis CITY SC Activo 131 / 131 40% 8 27.11.2026 -
Alexander Aravena Portland Timbers Activo 129 / 133 40% 3 27.11.2026 -
Lorent Tolaj Plymouth Argyle Activo 114 / 119 40% 1 26.11.2026 -
Joshua Zirkzee Manchester United Activo 138 / 134 40% 1 25.11.2026 -
Wessam Abou Ali Columbus Crew Activo 124 / 135 40% 1 25.11.2026 -
Tomás Chancalay Minnesota United FC Activo 121 / 133 40% 3 24.11.2026 -
Jack Rudoni Coventry City Activo 130 / 135 40% 1 24.11.2026 -
Tyrese Campbell Sheffield United Activo 120 / 118 40% 3 23.11.2026 -
Ilyas Ansah Hull City Activo 135 / 122 40% 1 22.11.2026 -
Diego Luna Real Salt Lake Activo 130 / 131 40% 2 21.11.2026 -
Josh Sargent Toronto FC Activo 136 / 131 40% 1 17.11.2026 -
Bongani Modiba Black Aces Activo 130 / 137 40% 1 16.11.2026 -
Álvaro Rodríguez Bournemouth Activo 134 / 134 40% 1 16.11.2026 -
Conrad Wallem Austria Wien Activo 135 / 135 40% 1 13.11.2026 -
Welington Southampton Activo 123 / 128 40% 1 13.11.2026 -
Santiago Rodríguez Columbus Crew Activo 120 / 119 40% 1 13.11.2026 -
Agustín Anello Philadelphia Union Activo 122 / 133 40% 4 11.11.2026 -
Dejan Joveljić Seattle Sounders Activo 134 / 119 40% 4 11.11.2026 -
Othmane Maamma Watford Activo 132 / 122 40% 1 11.11.2026 -
Juan Manuel Sanabria Real Salt Lake Activo 128 / 130 40% 2 09.11.2026 -
Luis Vázquez Birmingham Activo 127 / 128 40% 1 07.11.2026 -
Evidence Makgopa Orlando Pirates Activo 113 / 120 40% 1 03.11.2026 -
Tommy Conway Middlesbrough Activo 122 / 137 40% 1 03.11.2026 -
Cheikh Sabaly Vancouver Whitecaps Activo 127 / 119 40% 3 02.11.2026 -
Victor Olatunji Real Salt Lake Activo 116 / 118 40% 1 02.11.2026 -
Martín Ojeda Orlando City Activo 142 / 129 40% 4 01.11.2026 -
Joe Gelhardt Hull City Activo 126 / 129 40% 2 01.11.2026 -
Antonio Galeano Remo Stars Activo 112 / 139 40% 2 01.11.2026 -
Yeangel Montero Naxxar Lions Activo 103 / 106 40% 1 31.10.2026 -
Jeong Sang-Bin St. Louis CITY SC Activo 112 / 121 40% 2 30.10.2026 -
Louis Munteanu DC United Activo 119 / 118 40% 1 30.10.2026 -
Indiana Vassilev Philadelphia Union Activo 118 / 122 40% 3 26.10.2026 -
Scott Twine Bristol City Activo 115 / 115 40% 1 26.10.2026 -
Facundo Mura Inter Miami CF Activo 132 / 131 40% 1 26.10.2026 -
Adnan Courtois KV Oostende Activo 141 / 136 40% 3 24.10.2026 -
Leonardo Campana New England Revolution Activo 128 / 125 40% 2 23.10.2026 -
Andrés Herrera Columbus Crew Activo 129 / 114 40% 1 21.10.2026 -
Quinn Sullivan Philadelphia Union Activo 121 / 127 40% 1 21.10.2026 -
Archie Goodwin Charlotte Football Club Activo 108 / 114 40% 2 17.10.2026 -
Dávid Strelec Middlesbrough Activo 144 / 139 40% 1 16.10.2026 -
Kevin Kelsy Portland Timbers Activo 114 / 124 40% 2 15.10.2026 -
Cameron Archer Southampton Activo 120 / 131 40% 1 12.10.2026 -
Yannick Bright Inter Miami CF Activo 121 / 127 40% 1 09.10.2026 -
Joseph Rosales Austin FC Activo 116 / 108 40% 1 09.10.2026 -
Riqui Puig LA Galaxy Activo 136 / 141 40% 1 09.10.2026 -
Ayoub Jabbari FC Cincinnati Activo 115 / 114 40% 1 08.10.2026 -
Alhassan Yusuf New England Revolution Activo 129 / 123 40% 1 15.09.2026 -
Jahkeele Marshall-Rutty New York Red Bulls Activo 114 / 121 40% 1 15.09.2026 -
Gabriel Pirani San Diego Football Club Activo 139 / 122 40% 1 14.09.2026 -
Rui Modesto Vancouver Whitecaps Activo 130 / 123 40% 1 14.09.2026 -
Lucas Sanabria LA Galaxy Activo 124 / 135 40% 1 12.09.2026 -
Patrick Yazbek Nashville SC Activo 128 / 116 40% 1 08.09.2026 -
Iván Angulo Orlando City Activo 122 / 125 40% 1 08.09.2026 -
Marco Pašalić Orlando City Activo 135 / 123 40% 1 08.09.2026 -
Pablo Ruiz Real Salt Lake Activo 120 / 120 40% 1 07.09.2026 -
Edvard Tagseth Nashville SC Activo 109 / 111 40% 1 07.09.2026 -
Mamadou Jobe Cambridge United Activo 93 / 96 65% 1 10.08.2026 Aprobar
Jack Hinshelwood Brighton Activo 137 / 154 40% 1 03.08.2026 -
Brooklyn Raines New England Revolution Activo 101 / 108 40% 1 03.08.2026 -
Jack Neeley Charlotte Football Club Activo 84 / 106 40% 1 01.08.2026 -